Time;durP1;ratioP1;P1;durP2;ratioP2;P2;SDS_P1;SDS_P2;PMS_P1;PMS_P2;Temp;Humidity;BMP_temperature;BMP_pressure;BME280_temperature;BME280_humidity;BME280_pressure;Samples;Min_cycle;Max_cycle;Signal;HPM_P1;HPM_P2
2021/05/05 00:02:08;;;;;;;8.30;5.38;;;16.10;91.40;;;;;;4975663;28;20031;-79
2021/05/05 00:04:34;;;;;;;7.93;5.30;;;16.10;91.30;;;;;;4975443;28;20493;-71
2021/05/05 00:07:00;;;;;;;7.07;4.97;;;16.20;91.50;;;;;;4975026;28;20054;-71
2021/05/05 00:09:26;;;;;;;8.35;5.68;;;16.20;91.20;;;;;;4975285;28;20027;-80
2021/05/05 00:11:52;;;;;;;8.38;5.30;;;16.20;91.10;;;;;;4974931;28;20034;-77
2021/05/05 00:14:20;;;;;;;8.45;5.80;;;16.30;91.20;;;;;;4975124;28;20031;-72
2021/05/05 00:16:46;;;;;;;8.30;5.85;;;16.20;91.50;;;;;;4975111;28;20430;-75
2021/05/05 00:19:13;;;;;;;8.63;5.65;;;16.20;91.40;;;;;;4957533;28;20026;-79
2021/05/05 00:21:40;;;;;;;9.23;6.13;;;16.20;91.10;;;;;;4975368;28;20034;-74
2021/05/05 00:24:06;;;;;;;10.68;6.07;;;16.10;91.80;;;;;;4975213;28;20393;-72
2021/05/05 00:26:32;;;;;;;10.70;6.00;;;16.10;91.70;;;;;;4977379;28;20102;-71
2021/05/05 00:28:58;;;;;;;8.52;5.70;;;16.10;91.40;;;;;;4975505;28;20492;-80
2021/05/05 00:31:25;;;;;;;10.63;5.93;;;16.10;91.30;;;;;;4974974;28;20023;-72
2021/05/05 00:33:51;;;;;;;9.63;6.30;;;16.10;91.40;;;;;;4974954;28;20478;-72
2021/05/05 00:36:17;;;;;;;12.43;6.18;;;16.00;91.50;;;;;;4974713;28;20106;-80
2021/05/05 00:38:45;;;;;;;12.27;6.20;;;16.00;91.50;;;;;;4974620;28;20051;-72
2021/05/05 00:41:11;;;;;;;10.98;6.07;;;16.00;91.60;;;;;;4974616;28;20023;-71
2021/05/05 00:43:39;;;;;;;10.25;5.90;;;15.90;92.00;;;;;;4975090;28;20027;-79
2021/05/05 00:46:05;;;;;;;8.18;6.05;;;15.80;91.70;;;;;;4974435;28;20027;-72
2021/05/05 00:48:31;;;;;;;11.93;6.78;;;15.80;92.00;;;;;;4975522;28;20022;-80
2021/05/05 00:51:00;;;;;;;8.70;6.15;;;15.90;92.00;;;;;;4974193;28;20105;-71
2021/05/05 00:53:26;;;;;;;12.85;6.90;;;15.90;92.10;;;;;;4956602;28;20035;-71
2021/05/05 00:55:52;;;;;;;8.25;6.30;;;15.90;92.00;;;;;;4975315;28;20031;-79
2021/05/05 00:58:18;;;;;;;11.05;6.72;;;15.90;92.20;;;;;;4978067;28;20027;-80
2021/05/05 01:00:47;;;;;;;9.43;6.53;;;15.80;92.80;;;;;;4978224;28;20041;-80
2021/05/05 01:03:13;;;;;;;9.40;7.25;;;15.60;92.20;;;;;;4978298;28;20015;-79
2021/05/05 01:05:39;;;;;;;12.10;7.35;;;15.60;93.00;;;;;;4978235;28;20031;-80
2021/05/05 01:08:07;;;;;;;10.38;7.43;;;15.40;92.60;;;;;;4978304;28;20496;-80
2021/05/05 01:10:33;;;;;;;9.98;7.30;;;15.60;92.70;;;;;;4978224;28;20030;-79
2021/05/05 01:12:59;;;;;;;10.43;7.85;;;15.50;92.80;;;;;;4978504;28;20508;-76
2021/05/05 01:15:26;;;;;;;9.50;6.60;;;15.40;93.40;;;;;;4977538;28;20477;-79
2021/05/05 01:17:52;;;;;;;12.05;6.50;;;15.20;93.40;;;;;;4978041;28;20054;-79
2021/05/05 01:20:18;;;;;;;10.45;6.45;;;15.00;93.60;;;;;;4960320;28;20124;-71
2021/05/05 01:22:44;;;;;;;9.63;6.38;;;14.80;93.90;;;;;;4977963;28;20397;-71
2021/05/05 01:25:13;;;;;;;10.35;5.85;;;14.80;94.00;;;;;;4960397;28;20038;-71
2021/05/05 01:27:42;;;;;;;10.25;6.10;;;14.80;94.00;;;;;;4960719;28;20370;-71
2021/05/05 01:30:10;;;;;;;9.38;6.10;;;14.70;93.90;;;;;;4978105;28;20015;-71
2021/05/05 01:32:38;;;;;;;12.07;6.95;;;14.80;94.20;;;;;;4978152;28;20097;-71
2021/05/05 01:35:06;;;;;;;9.18;5.82;;;14.80;94.30;;;;;;4977999;28;20030;-78
2021/05/05 01:37:33;;;;;;;11.18;6.15;;;14.60;94.20;;;;;;4977563;28;20027;-71
2021/05/05 01:39:59;;;;;;;7.90;5.93;;;14.60;94.10;;;;;;4977646;28;20030;-78
2021/05/05 01:42:25;;;;;;;7.90;5.65;;;14.50;94.30;;;;;;4977197;28;20493;-79
2021/05/05 01:44:51;;;;;;;8.20;5.85;;;14.50;94.30;;;;;;4977548;28;20053;-76
2021/05/05 01:47:17;;;;;;;8.45;5.53;;;14.50;94.50;;;;;;4977269;28;20098;-71
2021/05/05 01:49:45;;;;;;;8.68;5.93;;;14.40;94.40;;;;;;4977686;28;20019;-79
2021/05/05 01:52:12;;;;;;;10.48;6.00;;;14.40;94.20;;;;;;4977140;28;20082;-80
2021/05/05 01:54:38;;;;;;;8.10;5.80;;;14.30;94.30;;;;;;4959696;28;20110;-80
2021/05/05 01:57:33;;;;;;;7.85;5.90;;;14.30;94.20;;;;;;4977991;28;20027;-72
2021/05/05 02:00:00;;;;;;;9.73;5.70;;;14.20;94.30;;;;;;4976803;28;20430;-79
2021/05/05 02:02:30;;;;;;;9.85;5.78;;;14.30;94.30;;;;;;4977062;28;20449;-71
2021/05/05 02:04:57;;;;;;;8.88;5.80;;;14.20;94.20;;;;;;4977075;28;20019;-79
2021/05/05 02:07:23;;;;;;;10.25;5.57;;;14.30;94.10;;;;;;4976942;28;20425;-71
2021/05/05 02:09:49;;;;;;;9.02;5.47;;;14.30;94.00;;;;;;4959733;28;20035;-71
2021/05/05 02:12:15;;;;;;;9.65;5.13;;;14.30;93.90;;;;;;4977616;28;20046;-71
2021/05/05 02:14:42;;;;;;;7.68;5.55;;;14.20;93.90;;;;;;4977186;28;20019;-71
2021/05/05 02:17:09;;;;;;;9.93;5.72;;;14.20;93.90;;;;;;4959806;28;20097;-81
2021/05/05 02:19:35;;;;;;;9.70;5.45;;;14.10;93.80;;;;;;4977018;28;20023;-79
2021/05/05 02:22:01;;;;;;;8.35;5.32;;;14.20;93.80;;;;;;4976918;28;20054;-71
2021/05/05 02:24:27;;;;;;;10.07;5.90;;;14.10;93.80;;;;;;4959387;28;20380;-79
2021/05/05 02:26:53;;;;;;;9.77;5.75;;;13.90;94.00;;;;;;4977105;28;20030;-79
2021/05/05 02:29:19;;;;;;;12.00;5.88;;;13.90;94.20;;;;;;4976727;28;20031;-80
2021/05/05 02:31:46;;;;;;;9.55;5.60;;;13.90;94.30;;;;;;4976633;28;20022;-79
2021/05/05 02:34:12;;;;;;;9.90;5.82;;;13.90;94.60;;;;;;4976217;28;20023;-79
2021/05/05 02:36:38;;;;;;;9.93;6.07;;;14.00;94.10;;;;;;4976465;28;20061;-79
2021/05/05 02:39:09;;;;;;;9.85;5.97;;;14.00;94.60;;;;;;4976137;28;20050;-71
2021/05/05 02:41:37;;;;;;;13.27;5.95;;;14.10;94.20;;;;;;4976362;28;20081;-72
2021/05/05 02:44:04;;;;;;;8.80;5.68;;;14.00;94.10;;;;;;4959105;28;20027;-77
2021/05/05 02:46:30;;;;;;;6.88;5.55;;;13.90;94.10;;;;;;4976320;28;20023;-70
2021/05/05 02:48:56;;;;;;;8.23;5.78;;;13.90;94.60;;;;;;4977560;28;20022;-71
2021/05/05 02:51:22;;;;;;;9.80;5.93;;;13.90;94.30;;;;;;4976404;28;20125;-79
2021/05/05 02:53:48;;;;;;;8.40;5.93;;;13.90;94.90;;;;;;4975475;28;20114;-79
2021/05/05 02:56:14;;;;;;;10.00;6.00;;;13.90;94.50;;;;;;4976931;28;20026;-73
2021/05/05 02:58:40;;;;;;;8.13;5.88;;;13.80;94.20;;;;;;4976260;28;20026;-71
2021/05/05 03:01:06;;;;;;;10.10;5.53;;;13.80;94.00;;;;;;4975854;28;20031;-71
2021/05/05 03:03:32;;;;;;;8.45;5.20;;;13.80;94.50;;;;;;4976075;28;20027;-71
2021/05/05 03:05:58;;;;;;;9.00;6.07;;;13.90;94.30;;;;;;4976204;28;20477;-79
2021/05/05 03:08:24;;;;;;;9.55;6.10;;;13.70;94.50;;;;;;4975587;28;20107;-72
2021/05/05 03:10:49;;;;;;;9.02;5.80;;;13.60;94.90;;;;;;4975073;28;20022;-72
2021/05/05 03:13:15;;;;;;;9.98;6.25;;;13.60;95.20;;;;;;4976224;28;20101;-72
2021/05/05 03:15:41;;;;;;;10.25;6.30;;;13.50;94.90;;;;;;4975418;28;20026;-73
2021/05/05 03:18:08;;;;;;;10.63;6.88;;;13.50;95.60;;;;;;4975501;28;20033;-76
2021/05/05 03:20:33;;;;;;;16.92;7.90;;;13.40;95.50;;;;;;4975968;28;20045;-71
2021/05/05 03:23:00;;;;;;;13.48;7.35;;;13.30;95.50;;;;;;4975655;28;20035;-73
2021/05/05 03:25:26;;;;;;;17.92;7.95;;;13.30;95.50;;;;;;4975689;28;20078;-76
2021/05/05 03:27:52;;;;;;;12.38;6.80;;;13.30;95.60;;;;;;4975354;28;20022;-77
2021/05/05 03:30:19;;;;;;;10.07;6.50;;;13.30;95.50;;;;;;4975754;28;20073;-71
2021/05/05 03:32:45;;;;;;;11.60;7.07;;;13.40;95.20;;;;;;4975135;28;20014;-71
2021/05/05 03:35:12;;;;;;;11.02;7.03;;;13.40;95.30;;;;;;4975540;28;20102;-76
2021/05/05 03:37:38;;;;;;;13.20;7.20;;;13.40;95.70;;;;;;4958021;28;20477;-70
2021/05/05 03:40:07;;;;;;;10.60;6.93;;;13.50;95.40;;;;;;4975208;28;20110;-76
2021/05/05 03:42:33;;;;;;;10.50;7.15;;;13.50;95.30;;;;;;4975253;28;20029;-70
2021/05/05 03:45:00;;;;;;;14.40;6.50;;;13.50;95.20;;;;;;4975836;28;20031;-71
2021/05/05 03:47:26;;;;;;;11.15;6.32;;;13.50;95.10;;;;;;4975351;28;20374;-71
2021/05/05 03:49:52;;;;;;;11.73;6.50;;;13.50;95.30;;;;;;4975358;28;20023;-71
2021/05/05 03:52:18;;;;;;;10.50;7.03;;;13.40;95.90;;;;;;4975084;28;20162;-76
2021/05/05 03:54:44;;;;;;;11.48;7.07;;;13.30;95.50;;;;;;4958444;28;20034;-73
2021/05/05 03:57:10;;;;;;;11.38;7.05;;;13.30;96.00;;;;;;4975954;28;20110;-70
2021/05/05 03:59:36;;;;;;;14.85;7.35;;;13.30;95.30;;;;;;4975734;28;20063;-76
2021/05/05 04:02:02;;;;;;;11.52;6.38;;;13.20;95.30;;;;;;4975055;28;20030;-71
2021/05/05 04:04:28;;;;;;;12.55;6.68;;;13.10;95.20;;;;;;4957458;28;20039;-71
2021/05/05 04:06:54;;;;;;;16.80;8.88;;;13.00;94.90;;;;;;4975293;28;20504;-77
2021/05/05 04:09:24;;;;;;;15.73;8.45;;;12.90;95.20;;;;;;4975369;28;20101;-71
2021/05/05 04:11:53;;;;;;;15.00;8.25;;;12.80;95.30;;;;;;4957980;28;20022;-76
2021/05/05 04:14:21;;;;;;;17.05;8.23;;;12.80;95.30;;;;;;4974907;28;20027;-77
2021/05/05 04:16:47;;;;;;;14.07;8.30;;;12.90;95.10;;;;;;4974812;28;20497;-77
2021/05/05 04:19:17;;;;;;;15.82;7.88;;;12.90;94.60;;;;;;4974991;28;20082;-73
2021/05/05 04:21:43;;;;;;;14.98;7.43;;;12.90;94.80;;;;;;4974476;28;20114;-76
2021/05/05 04:24:10;;;;;;;12.25;7.40;;;12.90;94.70;;;;;;4974773;28;20085;-70
2021/05/05 04:26:36;;;;;;;11.90;7.35;;;13.10;94.70;;;;;;4975366;28;20026;-70
2021/05/05 04:29:02;;;;;;;14.20;6.68;;;13.30;95.00;;;;;;4974955;28;20023;-75
2021/05/05 04:31:30;;;;;;;10.10;6.85;;;13.40;93.90;;;;;;4978152;28;20050;-77
2021/05/05 04:33:56;;;;;;;14.57;6.85;;;13.60;94.10;;;;;;4978976;28;20050;-77
2021/05/05 04:36:21;;;;;;;14.45;6.85;;;13.70;93.50;;;;;;4961229;28;20508;-71
2021/05/05 04:38:47;;;;;;;16.10;6.70;;;13.80;93.30;;;;;;4978458;28;20023;-71
2021/05/05 04:41:13;;;;;;;16.27;6.68;;;13.90;93.20;;;;;;4978462;28;20421;-71
2021/05/05 04:43:39;;;;;;;13.80;6.78;;;14.10;93.10;;;;;;4961703;28;20038;-71
2021/05/05 04:46:05;;;;;;;9.75;6.00;;;14.20;93.00;;;;;;4978471;28;20026;-77
2021/05/05 04:48:32;;;;;;;11.05;6.40;;;14.30;93.00;;;;;;4978481;28;20113;-77
2021/05/05 04:50:58;;;;;;;14.25;6.72;;;14.50;92.50;;;;;;4978085;28;20015;-76
2021/05/05 04:53:24;;;;;;;11.50;6.65;;;14.60;92.10;;;;;;4978352;28;20154;-73
2021/05/05 04:55:51;;;;;;;11.73;6.43;;;14.60;91.50;;;;;;4978526;28;20030;-76
2021/05/05 04:58:21;;;;;;;12.38;6.38;;;14.60;90.80;;;;;;4978416;28;20027;-74
2021/05/05 05:00:47;;;;;;;10.45;5.30;;;14.70;90.60;;;;;;4960703;28;20026;-76
2021/05/05 05:03:17;;;;;;;11.57;6.03;;;14.90;90.80;;;;;;4960897;28;20062;-72
2021/05/05 05:05:43;;;;;;;10.00;5.57;;;15.00;90.60;;;;;;4960714;28;20034;-73
2021/05/05 05:08:09;;;;;;;16.88;6.28;;;15.10;90.80;;;;;;4977865;28;20237;-70
2021/05/05 05:10:35;;;;;;;10.45;5.82;;;15.30;90.40;;;;;;4960581;28;20057;-70
2021/05/05 05:13:02;;;;;;;10.05;5.53;;;15.40;90.10;;;;;;4960882;28;20054;-76
2021/05/05 05:15:28;;;;;;;10.73;5.88;;;15.50;89.70;;;;;;4978545;28;20473;-75
2021/05/05 05:17:54;;;;;;;10.15;6.05;;;15.70;87.10;;;;;;4978249;28;20457;-72
2021/05/05 05:20:21;;;;;;;13.15;6.20;;;15.70;88.50;;;;;;4978250;28;20073;-74
2021/05/05 05:22:47;;;;;;;16.23;6.90;;;15.80;90.30;;;;;;4977793;28;20069;-74
2021/05/05 05:25:13;;;;;;;11.98;7.60;;;15.80;90.40;;;;;;4960490;28;20094;-77
2021/05/05 05:27:39;;;;;;;11.00;6.97;;;15.80;89.50;;;;;;4977838;28;20023;-74
2021/05/05 05:30:07;;;;;;;10.10;6.15;;;16.00;89.10;;;;;;4977782;28;20425;-75
2021/05/05 05:32:34;;;;;;;12.15;6.32;;;16.10;87.60;;;;;;4977804;28;20027;-73
2021/05/05 05:35:00;;;;;;;11.27;6.38;;;16.40;88.70;;;;;;4977788;28;20027;-74
2021/05/05 05:37:26;;;;;;;10.05;5.97;;;16.40;87.00;;;;;;4977397;28;20026;-77
2021/05/05 05:39:52;;;;;;;12.18;6.10;;;16.70;85.70;;;;;;4977678;28;20484;-76
2021/05/05 05:42:18;;;;;;;10.07;5.80;;;16.80;84.80;;;;;;4976657;28;20027;-77
2021/05/05 05:44:44;;;;;;;9.60;5.50;;;17.00;84.80;;;;;;4977558;28;20105;-75
2021/05/05 05:47:10;;;;;;;9.25;5.10;;;17.00;81.20;;;;;;4977751;28;20058;-75
2021/05/05 05:49:36;;;;;;;10.63;5.47;;;16.90;82.20;;;;;;4977377;28;20029;-74
2021/05/05 05:52:02;;;;;;;7.60;5.20;;;16.90;82.20;;;;;;4959704;28;20102;-76
2021/05/05 05:54:28;;;;;;;7.63;5.30;;;16.90;82.80;;;;;;4976976;28;20055;-75
2021/05/05 05:56:54;;;;;;;8.88;5.55;;;17.10;81.80;;;;;;4975580;28;20051;-72
2021/05/05 05:59:21;;;;;;;7.70;5.10;;;17.20;83.00;;;;;;4976151;28;20026;-72
2021/05/05 06:01:47;;;;;;;7.82;4.90;;;17.40;81.80;;;;;;4975618;28;20035;-73
2021/05/05 06:04:15;;;;;;;8.60;4.82;;;17.50;81.90;;;;;;4975806;28;20030;-73
2021/05/05 06:06:41;;;;;;;9.98;5.20;;;17.70;79.30;;;;;;4958400;28;20033;-73
2021/05/05 06:09:07;;;;;;;8.10;5.07;;;17.90;80.00;;;;;;4971887;28;20023;-73
2021/05/05 06:11:33;;;;;;;12.25;5.20;;;17.90;77.20;;;;;;4968193;28;20026;-73
2021/05/05 06:13:59;;;;;;;10.40;5.15;;;18.00;74.50;;;;;;4974877;28;20023;-73
2021/05/05 06:16:25;;;;;;;11.30;5.10;;;17.90;77.00;;;;;;4977100;28;20023;-76
2021/05/05 06:18:51;;;;;;;8.32;5.22;;;17.90;75.80;;;;;;4976728;28;20026;-74
2021/05/05 06:21:17;;;;;;;8.45;4.03;;;18.10;77.40;;;;;;4976761;28;20466;-76
2021/05/05 06:23:43;;;;;;;6.20;4.05;;;18.40;76.40;;;;;;4976551;28;20026;-76
2021/05/05 06:26:09;;;;;;;6.85;3.95;;;18.60;72.90;;;;;;4976566;28;20034;-76
2021/05/05 06:28:35;;;;;;;8.77;4.30;;;18.80;72.80;;;;;;4976753;28;20031;-76
2021/05/05 06:31:01;;;;;;;8.05;4.43;;;19.00;73.80;;;;;;4976958;28;20022;-74
2021/05/05 06:33:27;;;;;;;7.22;4.50;;;19.20;74.80;;;;;;4959167;28;20023;-76
2021/05/05 06:35:54;;;;;;;5.53;3.72;;;19.20;72.60;;;;;;4976821;28;20023;-76
2021/05/05 06:38:20;;;;;;;12.00;4.90;;;19.20;69.80;;;;;;4976687;28;20054;-73
2021/05/05 06:40:46;;;;;;;8.48;4.05;;;19.40;72.00;;;;;;4958786;28;20031;-76
2021/05/05 06:43:12;;;;;;;8.80;4.47;;;19.50;71.80;;;;;;4976377;28;20080;-76
2021/05/05 06:45:38;;;;;;;7.05;3.78;;;19.60;70.50;;;;;;4976341;28;20019;-77
2021/05/05 06:48:05;;;;;;;7.35;3.70;;;19.80;69.20;;;;;;4976374;28;20366;-76
2021/05/05 06:50:31;;;;;;;9.07;3.55;;;19.80;66.60;;;;;;4976233;28;20026;-73
2021/05/05 06:52:57;;;;;;;6.32;3.28;;;20.00;64.20;;;;;;4975272;28;20066;-76
2021/05/05 06:55:23;;;;;;;5.93;3.40;;;20.10;63.40;;;;;;4976207;28;20022;-77
2021/05/05 06:57:50;;;;;;;4.72;3.10;;;20.20;63.40;;;;;;4976242;28;20098;-75
2021/05/05 07:00:19;;;;;;;7.13;3.33;;;20.20;60.60;;;;;;4958646;28;20023;-76
2021/05/05 07:02:44;;;;;;;7.75;3.47;;;20.30;62.60;;;;;;4976233;28;20469;-74
2021/05/05 07:05:11;;;;;;;7.45;4.18;;;;;;;;;;4975887;28;20495;-77
2021/05/05 07:07:37;;;;;;;8.20;3.17;;;20.70;60.10;;;;;;4976208;28;20517;-75
2021/05/05 07:10:04;;;;;;;7.72;3.10;;;20.80;59.40;;;;;;4975550;28;20500;-77
2021/05/05 07:12:30;;;;;;;4.47;2.78;;;20.80;59.10;;;;;;4958352;28;20093;-73
2021/05/05 07:14:56;;;;;;;7.15;2.88;;;21.00;59.70;;;;;;4975667;28;20026;-73
2021/05/05 07:17:22;;;;;;;7.07;2.50;;;21.00;55.70;;;;;;4975640;28;20023;-77
2021/05/05 07:19:53;;;;;;;7.53;3.28;;;21.00;57.20;;;;;;4975567;28;20481;-73
2021/05/05 07:22:20;;;;;;;6.15;2.80;;;21.30;58.00;;;;;;4975613;28;20030;-76
2021/05/05 07:24:47;;;;;;;6.85;3.05;;;21.30;55.50;;;;;;4975750;28;20191;-77
2021/05/05 07:27:14;;;;;;;5.22;2.53;;;21.60;57.00;;;;;;4958459;28;20469;-76
2021/05/05 07:29:40;;;;;;;5.75;2.67;;;21.70;52.70;;;;;;4975240;28;20485;-77
2021/05/05 07:32:06;;;;;;;5.35;2.47;;;21.50;53.90;;;;;;4975745;28;20018;-77
2021/05/05 07:34:33;;;;;;;5.53;2.33;;;21.70;55.70;;;;;;4958149;28;20030;-76
2021/05/05 07:37:14;;;;;;;4.22;2.40;;;21.80;52.40;;;;;;4957914;28;20031;-76
2021/05/05 07:48:04;;;;;;;7.40;2.60;;;22.00;50.90;;;;;;4975179;28;20041;-77
2021/05/05 07:50:22;;;;;;;5.35;2.60;;;22.10;51.70;;;;;;4969219;28;20378;-73
2021/05/05 07:52:49;;;;;;;6.40;2.22;;;22.40;52.70;;;;;;4964036;28;20555;-75
2021/05/05 07:55:15;;;;;;;5.05;2.53;;;22.70;50.90;;;;;;4964348;28;20070;-73
2021/05/05 07:57:43;;;;;;;5.97;2.55;;;22.80;51.30;;;;;;4945237;28;20019;-74
2021/05/05 08:00:10;;;;;;;4.88;2.17;;;22.60;48.70;;;;;;4964260;28;20027;-78
2021/05/05 08:02:36;;;;;;;4.85;2.20;;;22.40;49.10;;;;;;4938236;29;20381;-75
2021/05/05 08:05:03;;;;;;;4.28;2.15;;;22.50;48.70;;;;;;4938066;29;20429;-76
2021/05/05 08:07:30;;;;;;;7.57;3.00;;;;;;;;;;4958841;28;20043;-75
2021/05/05 08:09:57;;;;;;;6.03;2.33;;;22.90;48.90;;;;;;4962529;28;20027;-73
2021/05/05 08:12:23;;;;;;;4.65;1.77;;;22.90;48.40;;;;;;4960263;28;20490;-72
2021/05/05 08:14:51;;;;;;;5.65;1.90;;;22.60;47.20;;;;;;4947252;28;20124;-76
2021/05/05 08:17:20;;;;;;;5.95;2.40;;;22.80;47.40;;;;;;4948667;28;20106;-75
2021/05/05 08:19:46;;;;;;;7.22;3.53;;;22.50;47.50;;;;;;4963967;28;20102;-74
2021/05/05 08:22:12;;;;;;;5.03;2.20;;;22.60;49.90;;;;;;4944376;29;20027;-74
2021/05/05 08:24:38;;;;;;;4.03;2.03;;;22.50;51.10;;;;;;4956106;29;20028;-76
2021/05/05 08:27:05;;;;;;;3.40;1.88;;;22.10;49.90;;;;;;4957104;29;20027;-77
2021/05/05 08:29:32;;;;;;;5.20;1.90;;;21.90;51.90;;;;;;4956782;29;20031;-73
2021/05/05 08:31:59;;;;;;;5.68;2.33;;;21.70;50.90;;;;;;4955690;29;20053;-76
2021/05/05 08:34:25;;;;;;;5.43;2.40;;;21.90;51.80;;;;;;4956314;29;20114;-78
2021/05/05 08:36:56;;;;;;;4.82;1.88;;;22.30;51.90;;;;;;4955668;29;20062;-77
2021/05/05 08:39:22;;;;;;;4.45;1.85;;;22.80;49.90;;;;;;4955677;29;20019;-74
2021/05/05 08:41:48;;;;;;;3.17;1.70;;;23.40;48.30;;;;;;4954749;29;20114;-73
2021/05/05 08:44:16;;;;;;;3.90;1.88;;;23.70;48.60;;;;;;4956561;29;20074;-74
2021/05/05 08:46:44;;;;;;;4.10;1.90;;;23.30;46.80;;;;;;4958416;29;20031;-74
2021/05/05 08:49:11;;;;;;;4.25;2.00;;;23.00;47.40;;;;;;4956290;29;20031;-76
2021/05/05 08:51:38;;;;;;;8.35;2.55;;;23.10;50.40;;;;;;4955229;29;20401;-77
2021/05/05 08:54:09;;;;;;;4.13;2.05;;;23.80;49.90;;;;;;4955509;29;20027;-78
2021/05/05 08:56:37;;;;;;;6.68;1.98;;;24.30;47.80;;;;;;4955177;29;20470;-77
2021/05/05 08:59:06;;;;;;;2.88;1.90;;;24.70;47.40;;;;;;4955417;29;20023;-74
2021/05/05 09:01:32;;;;;;;3.83;1.90;;;24.60;46.70;;;;;;4955222;29;20026;-75
2021/05/05 09:03:59;;;;;;;4.78;2.00;;;24.20;47.70;;;;;;4955007;29;20031;-76
2021/05/05 09:06:56;;;;;;;5.65;2.45;;;24.30;47.30;;;;;;4967436;28;20082;-70
2021/05/05 09:09:41;;;;;;;5.40;1.90;;;24.90;47.50;;;;;;4973566;28;20098;-72
2021/05/05 09:12:14;;;;;;;;;;;24.80;47.10;;;;;;4973523;28;20516;-74
2021/05/05 09:15:01;;;;;;;3.72;1.73;;;24.50;45.50;;;;;;4955531;28;19906;-73
2021/05/05 09:17:33;;;;;;;2.63;1.50;;;24.80;46.20;;;;;;4974796;28;20473;-73
2021/05/05 09:20:05;;;;;;;2.60;1.55;;;24.70;45.40;;;;;;4976667;28;20030;-74
2021/05/05 09:22:56;;;;;;;3.85;1.90;;;24.90;46.70;;;;;;4976518;28;20500;-73
2021/05/05 09:25:41;;;;;;;2.95;1.85;;;25.10;45.80;;;;;;4960271;28;20030;-72
2021/05/05 09:28:18;;;;;;;3.78;1.90;;;25.60;45.90;;;;;;4977879;28;20343;-76
2021/05/05 09:30:46;;;;;;;2.60;1.58;;;25.80;46.40;;;;;;4978804;28;20050;-76
2021/05/05 09:33:28;;;;;;;2.55;1.50;;;25.50;44.60;;;;;;4978148;28;20027;-77
2021/05/05 09:36:08;;;;;;;4.85;1.60;;;25.50;44.10;;;;;;4978167;28;20042;-76
2021/05/05 09:38:51;;;;;;;3.30;1.70;;;26.00;44.60;;;;;;4977755;28;20508;-77
2021/05/05 09:41:20;;;;;;;4.40;2.25;;;26.40;46.10;;;;;;4977440;28;20029;-78
2021/05/05 09:43:47;;;;;;;4.18;1.70;;;26.70;44.90;;;;;;4977482;28;20041;-78
2021/05/05 09:46:46;;;;;;;4.47;1.60;;;26.70;45.60;;;;;;4977368;28;20023;-76
2021/05/05 09:49:32;;;;;;;3.40;1.58;;;26.40;43.80;;;;;;4977413;28;20027;-72
2021/05/05 09:52:18;;;;;;;4.53;1.65;;;26.00;44.40;;;;;;4966502;28;20046;-72
2021/05/05 09:54:55;;;;;;;9.65;3.90;;;26.10;45.40;;;;;;4963241;28;20051;-72
2021/05/05 09:57:28;;;;;;;3.92;1.83;;;25.80;45.40;;;;;;4977369;28;20065;-73
2021/05/05 10:00:00;;;;;;;3.43;1.80;;;26.10;46.50;;;;;;4977876;28;20429;-74
2021/05/05 10:02:28;;;;;;;4.57;1.50;;;26.30;45.90;;;;;;4977246;28;20078;-76
2021/05/05 10:05:02;;;;;;;4.60;1.60;;;26.30;44.60;;;;;;4976741;28;20023;-73
2021/05/05 10:07:47;;;;;;;3.47;1.67;;;26.40;43.30;;;;;;4959513;28;20027;-77
2021/05/05 10:10:13;;;;;;;4.88;1.80;;;26.60;43.30;;;;;;4976855;28;20028;-77
2021/05/05 10:12:40;;;;;;;5.40;1.55;;;;;;;;;;4976673;28;20077;-76
2021/05/05 10:15:07;;;;;;;2.50;1.73;;;26.20;42.60;;;;;;4976717;28;20373;-76
2021/05/05 10:17:34;;;;;;;3.10;1.63;;;26.20;43.40;;;;;;4976663;28;20033;-75
2021/05/05 10:20:03;;;;;;;3.95;1.60;;;26.80;46.10;;;;;;4976440;28;20062;-76
2021/05/05 10:22:30;;;;;;;2.45;1.50;;;26.80;45.50;;;;;;4976405;28;20031;-78
2021/05/05 10:24:58;;;;;;;3.33;1.35;;;26.70;44.00;;;;;;4976430;28;20027;-78
2021/05/05 10:27:25;;;;;;;4.57;1.92;;;27.00;45.10;;;;;;4959095;28;20019;-77
2021/05/05 10:29:52;;;;;;;4.65;1.80;;;26.90;44.40;;;;;;4976465;28;20030;-73
2021/05/05 10:32:23;;;;;;;3.83;1.80;;;27.60;45.20;;;;;;4976367;28;20018;-75
2021/05/05 10:34:52;;;;;;;4.20;1.73;;;27.70;43.00;;;;;;4958849;28;20066;-77
2021/05/05 10:37:18;;;;;;;4.18;1.90;;;27.20;41.70;;;;;;4976467;28;20033;-77
2021/05/05 10:39:45;;;;;;;4.82;1.50;;;27.20;43.10;;;;;;4976248;28;20025;-76
2021/05/05 10:42:15;;;;;;;4.15;1.90;;;27.50;44.20;;;;;;4976159;28;20022;-75
2021/05/05 10:44:52;;;;;;;5.05;1.73;;;27.40;42.10;;;;;;4976014;28;20085;-76
2021/05/05 10:48:01;;;;;;;3.83;1.98;;;27.70;43.40;;;;;;4976043;28;20027;-77
2021/05/05 10:50:27;;;;;;;4.65;1.67;;;27.70;42.20;;;;;;4967302;28;20358;-77
2021/05/05 10:52:54;;;;;;;4.43;1.42;;;27.80;41.60;;;;;;4975667;28;20047;-76
2021/05/05 10:55:36;;;;;;;3.22;1.50;;;28.30;43.20;;;;;;4975945;28;20445;-74
2021/05/05 10:58:08;;;;;;;5.28;1.50;;;28.70;42.70;;;;;;4975870;28;20022;-78
2021/05/05 11:00:53;;;;;;;3.08;1.63;;;28.60;41.60;;;;;;4975888;28;20027;-76
2021/05/05 11:03:51;;;;;;;3.42;1.83;;;29.00;43.00;;;;;;4975871;28;20027;-77
2021/05/05 11:06:30;;;;;;;3.08;1.67;;;28.50;41.10;;;;;;4975702;28;20015;-74
2021/05/05 11:09:11;;;;;;;3.00;1.63;;;27.80;41.90;;;;;;4975616;28;20090;-77
2021/05/05 11:11:47;;;;;;;5.03;1.48;;;27.20;41.30;;;;;;4975558;28;20109;-76
2021/05/05 11:14:23;;;;;;;4.15;1.60;;;27.10;41.80;;;;;;4976367;28;20026;-77
2021/05/05 11:16:52;;;;;;;5.07;2.00;;;27.00;41.90;;;;;;4958153;28;20081;-74
2021/05/05 11:19:41;;;;;;;3.35;1.50;;;27.60;44.30;;;;;;4975544;28;20030;-76
2021/05/05 11:22:35;;;;;;;2.13;1.52;;;28.10;42.90;;;;;;4975632;28;20035;-74
2021/05/05 11:25:24;;;;;;;4.45;1.70;;;28.20;42.70;;;;;;4976492;28;20030;-73
2021/05/05 11:27:53;;;;;;;3.47;1.50;;;27.70;40.80;;;;;;4965271;28;20444;-75
2021/05/05 11:30:33;;;;;;;2.45;1.60;;;27.70;43.30;;;;;;4962223;28;20433;-76
2021/05/05 11:32:59;;;;;;;3.25;1.60;;;27.60;45.00;;;;;;4958513;28;20050;-76
2021/05/05 11:35:28;;;;;;;3.92;1.67;;;27.60;42.20;;;;;;4966196;28;20027;-76
2021/05/05 11:38:23;;;;;;;1.95;1.30;;;27.70;41.90;;;;;;4976959;28;20026;-76
2021/05/05 11:40:54;;;;;;;3.00;1.55;;;27.50;42.20;;;;;;4974457;28;20034;-73
2021/05/05 11:43:21;;;;;;;4.18;1.75;;;27.90;43.00;;;;;;4956778;28;20035;-76
2021/05/05 11:45:55;;;;;;;8.55;1.77;;;28.00;42.60;;;;;;4956102;29;20023;-77
2021/05/05 11:48:33;;;;;;;3.97;1.50;;;28.40;45.70;;;;;;4955960;29;20026;-73
2021/05/05 11:51:01;;;;;;;2.53;1.35;;;28.60;42.50;;;;;;4938366;29;20489;-76
2021/05/05 11:53:36;;;;;;;2.42;1.42;;;28.60;43.00;;;;;;4955853;29;20023;-77
2021/05/05 11:56:14;;;;;;;2.40;1.30;;;28.50;39.90;;;;;;4955801;29;20481;-77
2021/05/05 11:58:41;;;;;;;4.05;1.60;;;28.40;42.10;;;;;;4955738;29;20516;-73
2021/05/05 12:01:07;;;;;;;3.58;1.30;;;28.10;40.70;;;;;;4955719;29;20031;-73
2021/05/05 12:03:33;;;;;;;4.43;1.38;;;28.40;44.60;;;;;;4938188;29;20162;-73
2021/05/05 12:05:59;;;;;;;2.90;1.48;;;28.40;41.70;;;;;;4938381;29;20114;-77
2021/05/05 12:08:27;;;;;;;3.70;1.67;;;28.10;40.60;;;;;;4955310;29;20019;-73
2021/05/05 12:11:00;;;;;;;5.38;2.17;;;28.20;41.90;;;;;;4955275;29;20225;-76
2021/05/05 12:13:36;;;;;;;2.88;1.60;;;28.20;42.60;;;;;;4940947;28;20406;-72
2021/05/05 12:16:09;;;;;;;5.95;1.92;;;28.20;41.90;;;;;;4961064;28;20027;-73
2021/05/05 12:18:44;;;;;;;5.70;2.53;;;27.60;41.00;;;;;;4965906;28;20039;-73
2021/05/05 12:21:19;;;;;;;4.75;1.70;;;27.90;42.30;;;;;;4961941;28;20467;-73
2021/05/05 12:23:47;;;;;;;4.00;1.30;;;28.20;44.20;;;;;;4969005;28;20031;-76
2021/05/05 12:26:13;;;;;;;4.85;1.65;;;28.10;42.80;;;;;;4975192;28;20381;-74
2021/05/05 12:28:39;;;;;;;3.85;2.78;;;28.70;43.10;;;;;;4975373;28;20085;-75
2021/05/05 12:31:05;;;;;;;5.03;1.60;;;28.90;44.70;;;;;;4974741;28;20027;-74
2021/05/05 12:33:32;;;;;;;3.97;1.63;;;28.90;42.30;;;;;;4965176;28;20061;-73
2021/05/05 12:36:00;;;;;;;5.15;1.65;;;28.00;42.30;;;;;;4965237;28;20101;-73
2021/05/05 12:38:31;;;;;;;2.88;1.40;;;27.80;42.50;;;;;;4969861;28;20019;-76
2021/05/05 12:41:03;;;;;;;4.95;1.52;;;28.10;44.80;;;;;;4974695;28;20105;-75
2021/05/05 12:43:29;;;;;;;6.13;1.60;;;28.50;43.00;;;;;;4974376;28;20034;-75
2021/05/05 12:45:57;;;;;;;3.38;1.50;;;28.50;43.20;;;;;;4975010;28;20082;-76
2021/05/05 12:48:41;;;;;;;3.15;1.40;;;28.50;42.20;;;;;;4974439;28;20023;-76
2021/05/05 12:51:13;;;;;;;2.92;1.50;;;28.30;41.00;;;;;;4974385;28;20031;-76
2021/05/05 12:53:56;;;;;;;4.63;1.58;;;28.10;43.00;;;;;;4960447;28;20042;-76
2021/05/05 12:56:49;;;;;;;2.40;1.40;;;28.20;42.80;;;;;;4978070;28;20082;-76
2021/05/05 12:59:19;;;;;;;3.50;1.50;;;28.60;45.10;;;;;;4952802;28;20031;-72
2021/05/05 13:01:49;;;;;;;3.65;1.40;;;28.10;40.60;;;;;;4960169;28;20041;-76
2021/05/05 13:04:18;;;;;;;2.95;1.65;;;28.60;43.90;;;;;;4977981;28;20026;-75